Time;durP1;ratioP1;P1;durP2;ratioP2;P2;SDS_P1;SDS_P2;PMS_P1;PMS_P2;Temp;Humidity;BMP_temperature;BMP_pressure;BME280_temperature;BME280_humidity;BME280_pressure;Samples;Min_cycle;Max_cycle;Signal;HPM_P1;HPM_P2
2023/11/11 00:01:55;;;;;;;4.50;4.10;;;19.30;69.30;;;;;;5100889;28;20035;-34
2023/11/11 00:04:24;;;;;;;4.95;4.40;;;19.30;69.30;;;;;;5099597;28;20036;-34
2023/11/11 00:06:50;;;;;;;4.57;4.18;;;19.30;69.40;;;;;;5099256;28;20091;-35
2023/11/11 00:09:18;;;;;;;4.65;4.25;;;19.30;69.40;;;;;;5102831;28;20032;-34
2023/11/11 00:11:45;;;;;;;5.35;4.47;;;19.30;69.30;;;;;;5101723;28;20029;-34
2023/11/11 00:14:14;;;;;;;5.00;4.55;;;19.30;69.30;;;;;;5103560;28;20039;-35
2023/11/11 00:16:40;;;;;;;5.00;4.60;;;19.30;69.40;;;;;;5096846;28;20024;-34
2023/11/11 00:19:11;;;;;;;5.32;4.68;;;19.30;69.30;;;;;;5093127;28;20032;-34
2023/11/11 00:21:39;;;;;;;4.63;4.22;;;19.30;69.30;;;;;;5096909;28;20027;-34
2023/11/11 00:24:07;;;;;;;4.95;4.20;;;19.30;69.30;;;;;;5085068;28;20480;-34
2023/11/11 00:26:34;;;;;;;5.43;4.93;;;19.30;69.30;;;;;;5091772;28;20093;-33
2023/11/11 00:29:00;;;;;;;4.78;4.38;;;19.30;69.20;;;;;;5091343;28;20077;-34
2023/11/11 00:31:27;;;;;;;5.00;4.50;;;19.30;69.30;;;;;;5102003;28;20016;-34
2023/11/11 00:33:54;;;;;;;5.15;4.75;;;19.30;69.30;;;;;;5102779;28;20051;-34
2023/11/11 00:36:20;;;;;;;;;;;19.30;69.30;;;;;;5103241;28;20036;-34
2023/11/11 00:38:47;;;;;;;5.30;4.70;;;19.30;69.30;;;;;;5101573;28;19911;-34
2023/11/11 00:41:14;;;;;;;4.93;4.53;;;19.30;69.30;;;;;;5100811;28;20606;-34
2023/11/11 00:43:40;;;;;;;4.88;4.47;;;19.30;69.30;;;;;;5101879;28;20044;-34
2023/11/11 00:46:06;;;;;;;4.80;4.40;;;19.30;69.10;;;;;;5099569;28;20032;-34
2023/11/11 00:48:32;;;;;;;5.47;4.97;;;19.20;69.20;;;;;;5103963;28;20762;-33
2023/11/11 00:50:58;;;;;;;5.57;4.93;;;19.20;69.20;;;;;;5101528;28;20044;-33
2023/11/11 00:53:24;;;;;;;6.18;5.57;;;19.30;69.20;;;;;;5099398;28;20042;-34
2023/11/11 00:55:51;;;;;;;4.80;4.40;;;19.30;69.20;;;;;;5100737;28;20032;-34
2023/11/11 00:58:19;;;;;;;5.30;4.80;;;19.30;69.30;;;;;;5101819;28;20102;-33
2023/11/11 01:00:45;;;;;;;5.28;4.88;;;19.30;69.30;;;;;;5098800;28;20059;-34
2023/11/11 01:03:12;;;;;;;5.93;5.43;;;19.20;69.30;;;;;;5101417;28;20432;-34
2023/11/11 01:05:38;;;;;;;5.82;5.32;;;19.20;69.30;;;;;;5102070;28;20035;-34
2023/11/11 01:08:04;;;;;;;5.93;5.43;;;19.20;69.30;;;;;;5097028;28;20040;-34
2023/11/11 01:10:34;;;;;;;5.25;4.75;;;19.20;69.20;;;;;;5097739;28;20031;-34
2023/11/11 01:13:01;;;;;;;5.55;5.05;;;19.30;69.20;;;;;;5090354;28;20033;-34
2023/11/11 01:15:27;;;;;;;6.05;5.47;;;19.20;69.20;;;;;;5091937;28;20032;-34
2023/11/11 01:17:53;;;;;;;5.90;5.18;;;19.20;69.30;;;;;;5082807;28;20569;-34
2023/11/11 01:20:20;;;;;;;6.10;5.43;;;19.20;69.30;;;;;;5094861;28;20032;-34
2023/11/11 01:22:46;;;;;;;5.63;5.13;;;19.20;69.30;;;;;;5100006;28;20043;-34
2023/11/11 01:25:12;;;;;;;5.82;4.80;;;19.20;69.40;;;;;;5101237;28;20043;-35
2023/11/11 01:27:39;;;;;;;6.05;5.45;;;19.20;69.40;;;;;;5091874;28;20096;-33
2023/11/11 01:30:07;;;;;;;5.28;4.88;;;19.20;69.40;;;;;;5094639;28;20111;-34
2023/11/11 01:32:33;;;;;;;5.82;5.32;;;19.20;69.40;;;;;;5093751;28;20035;-33
2023/11/11 01:35:00;;;;;;;5.40;4.82;;;19.20;69.40;;;;;;5098944;28;20069;-33
2023/11/11 01:37:26;;;;;;;5.93;5.40;;;19.20;69.40;;;;;;5092924;28;20058;-34
2023/11/11 01:39:52;;;;;;;6.00;5.40;;;19.20;69.40;;;;;;5097557;28;20035;-34
2023/11/11 01:42:18;;;;;;;5.25;4.75;;;19.20;69.40;;;;;;5103511;28;20037;-34
2023/11/11 01:44:44;;;;;;;6.18;5.00;;;19.20;69.40;;;;;;5100619;28;20048;-33
2023/11/11 01:47:10;;;;;;;5.75;5.20;;;19.20;69.50;;;;;;5096594;28;20051;-33
2023/11/11 01:49:37;;;;;;;5.70;5.20;;;19.10;69.40;;;;;;5099570;28;20040;-33
2023/11/11 01:52:04;;;;;;;5.70;5.20;;;19.20;69.40;;;;;;5093938;28;20104;-33
2023/11/11 01:54:30;;;;;;;5.38;4.90;;;19.20;69.40;;;;;;5097281;28;20064;-35
2023/11/11 01:56:56;;;;;;;5.80;5.30;;;19.10;69.40;;;;;;5095536;28;20739;-34
2023/11/11 01:59:25;;;;;;;5.53;5.03;;;19.20;69.50;;;;;;5100714;28;20104;-34
2023/11/11 02:01:51;;;;;;;5.35;4.85;;;19.10;69.50;;;;;;5098505;28;20039;-34
2023/11/11 02:04:18;;;;;;;5.40;4.90;;;19.10;69.50;;;;;;5099955;28;20058;-33
2023/11/11 02:06:46;;;;;;;5.82;5.30;;;19.10;69.50;;;;;;5092550;28;20054;-38
2023/11/11 02:09:15;;;;;;;5.70;5.20;;;19.10;69.40;;;;;;5096680;28;20032;-37
2023/11/11 02:11:41;;;;;;;5.47;4.97;;;19.10;69.40;;;;;;5096332;28;20036;-34
2023/11/11 02:14:09;;;;;;;5.37;4.90;;;19.10;69.50;;;;;;5101235;28;20039;-34
2023/11/11 02:16:35;;;;;;;4.72;4.32;;;19.10;69.50;;;;;;5101098;28;20031;-34
2023/11/11 02:19:02;;;;;;;5.97;5.45;;;19.10;69.40;;;;;;5100186;28;20036;-34
2023/11/11 02:21:32;;;;;;;5.57;5.07;;;19.10;69.40;;;;;;5103214;28;20062;-33
2023/11/11 02:23:59;;;;;;;6.90;4.82;;;19.10;69.50;;;;;;5102412;28;20028;-34
2023/11/11 02:26:26;;;;;;;;;;;19.10;69.60;;;;;;5101414;28;20035;-34
2023/11/11 02:28:53;;;;;;;5.40;4.90;;;19.00;69.30;;;;;;5102906;28;20316;-34
2023/11/11 02:31:19;;;;;;;5.97;5.35;;;19.10;69.50;;;;;;5099937;28;20035;-34
2023/11/11 02:33:47;;;;;;;5.65;5.15;;;19.00;69.40;;;;;;5102749;28;20069;-34
2023/11/11 02:36:15;;;;;;;5.32;4.50;;;19.00;69.50;;;;;;5094939;28;20024;-34
2023/11/11 02:38:41;;;;;;;;;;;19.00;69.40;;;;;;5092257;28;20024;-34
2023/11/11 02:41:08;;;;;;;5.22;4.72;;;19.00;69.40;;;;;;5095730;28;19956;-34
2023/11/11 02:43:35;;;;;;;4.75;4.35;;;19.00;69.50;;;;;;5095969;28;20039;-34
2023/11/11 02:46:02;;;;;;;4.97;4.50;;;19.00;69.50;;;;;;5101989;28;20024;-35
2023/11/11 02:48:29;;;;;;;5.65;5.15;;;19.00;69.50;;;;;;5101816;28;20049;-34
2023/11/11 02:50:55;;;;;;;5.10;4.60;;;19.00;69.50;;;;;;5095787;28;20028;-34
2023/11/11 02:53:22;;;;;;;4.80;4.40;;;19.00;69.50;;;;;;5102686;28;20024;-34
2023/11/11 02:55:48;;;;;;;5.72;5.22;;;19.00;69.50;;;;;;5097639;28;20036;-35
2023/11/11 02:58:14;;;;;;;5.57;5.07;;;19.00;69.60;;;;;;5094892;28;20032;-35
2023/11/11 03:00:40;;;;;;;5.05;4.55;;;19.00;69.60;;;;;;5096624;28;20024;-34
2023/11/11 03:03:09;;;;;;;5.07;4.50;;;19.00;69.50;;;;;;5101555;28;20024;-34
2023/11/11 03:05:36;;;;;;;5.45;4.95;;;19.00;69.50;;;;;;5103217;28;20028;-35
2023/11/11 03:08:02;;;;;;;5.60;5.10;;;19.00;69.50;;;;;;5099529;28;20055;-34
2023/11/11 03:10:28;;;;;;;4.93;4.53;;;19.00;69.50;;;;;;5093142;28;20036;-34
2023/11/11 03:12:55;;;;;;;5.03;4.63;;;19.00;69.60;;;;;;5096711;28;20109;-34
2023/11/11 03:15:22;;;;;;;5.22;4.78;;;19.00;69.60;;;;;;5100980;28;20072;-34
2023/11/11 03:17:49;;;;;;;5.60;5.10;;;18.90;69.50;;;;;;5098910;28;20040;-34
2023/11/11 03:20:15;;;;;;;4.70;4.30;;;18.90;69.60;;;;;;5101778;28;20745;-35
2023/11/11 03:22:41;;;;;;;6.18;4.72;;;18.90;69.60;;;;;;5097104;28;20028;-35
2023/11/11 03:25:08;;;;;;;5.50;4.93;;;18.90;69.60;;;;;;5092727;28;20020;-34
2023/11/11 03:27:34;;;;;;;5.50;5.00;;;18.90;69.60;;;;;;5102659;28;20024;-34
2023/11/11 03:30:01;;;;;;;5.28;4.80;;;18.90;69.60;;;;;;5101424;28;20028;-35
2023/11/11 03:32:28;;;;;;;5.88;5.38;;;18.90;69.60;;;;;;5100072;28;20036;-34
2023/11/11 03:34:55;;;;;;;4.65;4.25;;;18.90;69.60;;;;;;5100215;28;20417;-35
2023/11/11 03:37:21;;;;;;;4.78;4.38;;;18.90;69.60;;;;;;5099014;28;20032;-34
2023/11/11 03:39:47;;;;;;;5.43;4.93;;;18.90;69.60;;;;;;5099635;28;20655;-35
2023/11/11 03:42:13;;;;;;;5.05;4.55;;;18.90;69.60;;;;;;5096956;28;20063;-34
2023/11/11 03:44:39;;;;;;;4.82;4.43;;;18.90;69.60;;;;;;5099374;28;20063;-35
2023/11/11 03:47:06;;;;;;;4.70;4.30;;;18.90;69.60;;;;;;5097684;28;20028;-34
2023/11/11 03:49:32;;;;;;;5.40;4.90;;;18.80;69.60;;;;;;5101990;28;20057;-34
2023/11/11 03:52:00;;;;;;;4.93;4.53;;;18.80;69.60;;;;;;5099114;28;20052;-34
2023/11/11 03:54:26;;;;;;;5.20;4.70;;;18.80;69.60;;;;;;5097281;28;20048;-35
2023/11/11 03:56:52;;;;;;;5.10;4.60;;;18.80;69.70;;;;;;5101500;28;20020;-35
2023/11/11 03:59:18;;;;;;;5.07;4.68;;;18.80;69.60;;;;;;5101654;28;20099;-35
2023/11/11 04:01:45;;;;;;;5.40;4.73;;;18.80;69.60;;;;;;5104710;28;20089;-34
2023/11/11 04:04:12;;;;;;;5.00;4.50;;;18.80;69.60;;;;;;5089735;28;20040;-34
2023/11/11 04:06:39;;;;;;;5.20;4.70;;;18.80;69.60;;;;;;5086444;28;20043;-34
2023/11/11 04:09:05;;;;;;;5.45;4.95;;;18.80;69.60;;;;;;5093521;28;20024;-34
2023/11/11 04:11:33;;;;;;;5.32;4.90;;;18.80;69.60;;;;;;5091391;28;20025;-34
2023/11/11 04:14:01;;;;;;;;;;;18.80;69.60;;;;;;5084423;28;20036;-34
2023/11/11 04:16:29;;;;;;;5.28;4.78;;;18.80;69.60;;;;;;5090587;28;19919;-35
2023/11/11 04:18:56;;;;;;;5.22;4.72;;;18.80;69.60;;;;;;5084048;28;20033;-34
2023/11/11 04:21:22;;;;;;;;;;;18.80;69.60;;;;;;5091412;28;20630;-35
2023/11/11 04:23:49;;;;;;;5.97;5.07;;;18.80;69.70;;;;;;5084065;28;19984;-34
2023/11/11 04:26:15;;;;;;;5.53;5.03;;;18.80;69.60;;;;;;5092740;28;20037;-34
2023/11/11 04:28:43;;;;;;;5.75;4.82;;;18.80;69.60;;;;;;5084238;28;20468;-34
2023/11/11 04:31:17;;;;;;;5.18;4.78;;;18.80;69.70;;;;;;5093257;28;20020;-34
2023/11/11 04:33:43;;;;;;;5.20;4.70;;;18.80;69.70;;;;;;5097296;28;20036;-34
2023/11/11 04:36:09;;;;;;;5.50;5.00;;;18.70;69.60;;;;;;5093827;28;20035;-34
2023/11/11 04:38:37;;;;;;;5.45;4.97;;;18.70;69.60;;;;;;5090395;28;20036;-34
2023/11/11 04:41:05;;;;;;;;;;;18.70;69.60;;;;;;5087297;28;20028;-34
2023/11/11 04:43:34;;;;;;;5.35;4.90;;;18.70;69.60;;;;;;5085869;28;19958;-34
2023/11/11 04:46:01;;;;;;;5.57;5.00;;;18.70;69.60;;;;;;5094479;28;20107;-34
2023/11/11 04:48:27;;;;;;;5.22;4.80;;;18.70;69.60;;;;;;5091261;28;20029;-34
2023/11/11 04:50:54;;;;;;;5.30;4.47;;;18.70;69.60;;;;;;5084858;28;20029;-34
2023/11/11 04:53:20;;;;;;;5.10;4.63;;;18.70;69.60;;;;;;5091760;28;20067;-35
2023/11/11 04:55:47;;;;;;;5.93;4.60;;;18.70;69.60;;;;;;5088999;28;20098;-34
2023/11/11 04:58:16;;;;;;;5.78;4.80;;;18.70;69.60;;;;;;5096066;28;20028;-35
2023/11/11 05:00:42;;;;;;;5.57;5.00;;;18.70;69.60;;;;;;5092884;28;20036;-34
2023/11/11 05:03:08;;;;;;;5.32;4.85;;;18.70;69.60;;;;;;5090208;28;20032;-34
2023/11/11 05:05:35;;;;;;;5.40;4.90;;;18.70;69.70;;;;;;5092050;28;20037;-34
2023/11/11 05:08:02;;;;;;;5.82;5.32;;;18.70;69.60;;;;;;5090530;28;20029;-34
2023/11/11 05:10:30;;;;;;;;;;;18.70;69.60;;;;;;5092397;28;20042;-34
2023/11/11 05:12:56;;;;;;;5.95;5.10;;;18.70;69.60;;;;;;5095036;28;19912;-34
2023/11/11 05:15:24;;;;;;;5.70;5.20;;;18.70;69.60;;;;;;5097582;28;20033;-34
2023/11/11 05:17:50;;;;;;;5.70;5.20;;;18.70;69.60;;;;;;5095004;28;20035;-35
2023/11/11 05:20:17;;;;;;;5.60;5.10;;;18.60;69.60;;;;;;5087972;28;20036;-35
2023/11/11 05:22:43;;;;;;;5.63;5.13;;;18.60;69.60;;;;;;5093919;28;20028;-34
2023/11/11 05:25:13;;;;;;;3.72;3.42;;;18.60;69.60;;;;;;5097172;28;20088;-35
2023/11/11 05:27:39;;;;;;;5.45;4.97;;;18.60;69.60;;;;;;5092240;28;20065;-35
2023/11/11 05:30:06;;;;;;;5.30;4.87;;;18.60;69.60;;;;;;5096813;28;20024;-35
2023/11/11 05:32:32;;;;;;;5.68;5.18;;;18.60;69.60;;;;;;5097518;28;20035;-35
2023/11/11 05:34:59;;;;;;;5.45;4.72;;;18.60;69.60;;;;;;5090449;28;20112;-35
2023/11/11 05:37:25;;;;;;;5.40;5.00;;;18.60;69.60;;;;;;5093791;28;20017;-35
2023/11/11 05:39:51;;;;;;;5.17;4.67;;;18.60;69.60;;;;;;5090379;28;20036;-34
2023/11/11 05:42:17;;;;;;;5.80;5.30;;;18.60;69.60;;;;;;5105171;28;20024;-35
2023/11/11 05:44:44;;;;;;;5.55;5.05;;;18.60;69.70;;;;;;5097502;28;20147;-35
2023/11/11 05:47:10;;;;;;;5.90;5.30;;;18.60;69.60;;;;;;5088640;28;20347;-35
2023/11/11 05:49:36;;;;;;;5.87;5.33;;;18.60;69.60;;;;;;5094518;28;20035;-35
2023/11/11 05:52:05;;;;;;;5.53;5.00;;;18.60;69.70;;;;;;5085769;28;20269;-35
2023/11/11 05:54:31;;;;;;;5.72;5.22;;;18.60;69.70;;;;;;5093264;28;20032;-35
2023/11/11 05:56:58;;;;;;;5.32;4.82;;;18.60;69.70;;;;;;5088535;28;20032;-35
2023/11/11 05:59:24;;;;;;;;;;;18.60;69.70;;;;;;5085286;28;20028;-35
2023/11/11 06:01:51;;;;;;;5.30;4.80;;;18.60;69.70;;;;;;5088663;28;19918;-35
2023/11/11 06:04:18;;;;;;;5.70;5.20;;;18.60;69.70;;;;;;5090555;28;20111;-35
2023/11/11 06:06:44;;;;;;;6.07;5.50;;;18.60;69.70;;;;;;5096343;28;20074;-35
2023/11/11 06:09:11;;;;;;;5.50;5.00;;;18.60;69.70;;;;;;5095306;28;20020;-35
2023/11/11 06:11:47;;;;;;;6.10;5.50;;;18.60;69.60;;;;;;5096854;28;20024;-35
2023/11/11 06:14:17;;;;;;;5.82;5.22;;;18.60;69.60;;;;;;5100765;28;20059;-35
2023/11/11 06:16:44;;;;;;;6.03;5.45;;;18.60;69.60;;;;;;5100751;28;20028;-35
2023/11/11 06:19:10;;;;;;;5.95;5.45;;;18.50;69.60;;;;;;5096787;28;20029;-35
2023/11/11 06:21:36;;;;;;;5.85;5.25;;;18.50;69.70;;;;;;5097586;28;20107;-35
2023/11/11 06:24:04;;;;;;;5.37;4.90;;;18.50;69.70;;;;;;5097321;28;20024;-34
2023/11/11 06:26:30;;;;;;;5.88;5.30;;;18.50;69.70;;;;;;5086583;28;20032;-35
2023/11/11 06:28:57;;;;;;;6.17;5.57;;;18.50;69.70;;;;;;5086390;28;20574;-34
2023/11/11 06:31:23;;;;;;;5.55;5.05;;;18.50;69.70;;;;;;5093923;28;20035;-34
2023/11/11 06:33:53;;;;;;;5.55;5.05;;;18.50;69.80;;;;;;5099613;28;20048;-35
2023/11/11 06:36:19;;;;;;;5.82;5.32;;;18.50;69.70;;;;;;5095337;28;20020;-34
2023/11/11 06:38:45;;;;;;;5.63;5.13;;;18.50;69.70;;;;;;5091646;28;20096;-35
2023/11/11 06:41:11;;;;;;;6.00;5.40;;;18.50;69.80;;;;;;5099904;28;20101;-34
2023/11/11 06:43:38;;;;;;;5.93;5.43;;;18.50;69.80;;;;;;5097625;28;20036;-35
2023/11/11 06:46:06;;;;;;;6.00;5.50;;;18.50;69.80;;;;;;5092821;28;20046;-35
2023/11/11 06:48:33;;;;;;;6.47;5.68;;;18.50;69.80;;;;;;5106390;28;20459;-35
2023/11/11 06:50:59;;;;;;;6.30;5.70;;;18.50;69.80;;;;;;5100908;28;20150;-35
2023/11/11 06:53:25;;;;;;;6.05;5.45;;;18.50;69.80;;;;;;5101438;28;20047;-36
2023/11/11 06:55:52;;;;;;;6.10;5.50;;;18.40;69.80;;;;;;5100762;28;20453;-35
2023/11/11 06:58:18;;;;;;;5.70;5.20;;;18.40;69.70;;;;;;5098489;28;20020;-36
2023/11/11 07:00:47;;;;;;;6.30;5.70;;;18.40;69.70;;;;;;5105098;28;20065;-35
2023/11/11 07:03:13;;;;;;;6.00;5.40;;;18.40;69.70;;;;;;5103888;28;20060;-35
2023/11/11 07:05:39;;;;;;;6.18;5.68;;;18.40;69.70;;;;;;5098111;28;20031;-35
2023/11/11 07:08:05;;;;;;;6.22;5.63;;;18.40;69.80;;;;;;5099027;28;20032;-34
2023/11/11 07:10:33;;;;;;;6.40;5.80;;;18.40;69.80;;;;;;5107394;28;20185;-35
2023/11/11 07:13:00;;;;;;;5.63;4.78;;;18.40;69.90;;;;;;5099716;28;20028;-34
2023/11/11 07:15:27;;;;;;;6.38;5.78;;;18.40;69.90;;;;;;5099647;28;20091;-35
2023/11/11 07:17:53;;;;;;;5.90;5.40;;;18.40;69.80;;;;;;5102030;28;20030;-35
2023/11/11 07:20:21;;;;;;;6.20;5.70;;;18.40;69.80;;;;;;5095450;28;20028;-35
2023/11/11 07:22:51;;;;;;;6.30;5.70;;;18.40;69.90;;;;;;5102654;28;20032;-35
2023/11/11 07:25:20;;;;;;;6.13;5.50;;;18.40;69.90;;;;;;5096293;28;20024;-35
2023/11/11 07:27:47;;;;;;;5.90;5.30;;;18.40;69.80;;;;;;5089417;28;20134;-34
2023/11/11 07:30:13;;;;;;;6.40;5.80;;;18.40;69.90;;;;;;5099708;28;20032;-34
2023/11/11 07:32:40;;;;;;;5.50;5.00;;;18.40;69.90;;;;;;5098772;28;20036;-35
2023/11/11 07:35:10;;;;;;;6.20;5.60;;;18.40;69.90;;;;;;5103218;27;20044;-35
2023/11/11 07:37:42;;;;;;;6.22;5.60;;;18.40;69.90;;;;;;5097457;28;20042;-35
2023/11/11 07:40:09;;;;;;;5.97;5.38;;;18.40;69.90;;;;;;5094251;28;20793;-35
2023/11/11 07:42:35;;;;;;;6.53;5.93;;;18.40;70.00;;;;;;5101871;28;20036;-35
2023/11/11 07:45:04;;;;;;;6.25;5.57;;;18.30;69.80;;;;;;5101318;28;20054;-35
2023/11/11 07:47:31;;;;;;;6.05;5.45;;;18.30;69.90;;;;;;5096015;28;20032;-35
2023/11/11 07:49:58;;;;;;;6.10;5.50;;;18.30;69.90;;;;;;5101823;28;20028;-35
2023/11/11 07:52:25;;;;;;;6.17;5.40;;;18.30;69.90;;;;;;5095125;28;20020;-35
2023/11/11 07:54:52;;;;;;;7.80;5.47;;;18.30;69.90;;;;;;5096273;28;20095;-34
2023/11/11 07:57:19;;;;;;;6.13;5.53;;;18.30;69.90;;;;;;5101388;28;20036;-34
2023/11/11 07:59:45;;;;;;;5.80;5.20;;;18.30;69.90;;;;;;5102333;28;20028;-35
2023/11/11 08:02:12;;;;;;;7.28;5.80;;;18.30;69.90;;;;;;5100986;28;20028;-35
2023/11/11 08:04:38;;;;;;;6.40;5.80;;;18.30;69.90;;;;;;5101410;28;20028;-34
2023/11/11 08:07:06;;;;;;;5.60;5.13;;;18.30;69.90;;;;;;5097230;28;20042;-34
2023/11/11 08:09:32;;;;;;;5.68;5.18;;;18.30;69.80;;;;;;5101620;28;20053;-34
2023/11/11 08:11:58;;;;;;;6.85;5.47;;;18.30;69.80;;;;;;5101028;28;20032;-35
2023/11/11 08:14:25;;;;;;;6.40;5.20;;;18.30;69.80;;;;;;5101917;28;20066;-34
2023/11/11 08:16:51;;;;;;;5.88;5.28;;;18.30;69.90;;;;;;5099653;28;20028;-34
2023/11/11 08:19:18;;;;;;;5.70;5.07;;;18.20;69.90;;;;;;5095469;28;20039;-35
2023/11/11 08:21:44;;;;;;;5.88;5.32;;;18.20;69.80;;;;;;5099768;28;20085;-34
2023/11/11 08:24:12;;;;;;;5.53;5.03;;;18.20;69.80;;;;;;5099400;28;20527;-35
2023/11/11 08:26:38;;;;;;;5.82;4.95;;;18.20;69.80;;;;;;5101748;28;20040;-35
2023/11/11 08:29:04;;;;;;;5.45;4.80;;;18.20;69.70;;;;;;5099748;28;20067;-35
2023/11/11 08:31:30;;;;;;;5.63;5.00;;;18.20;69.90;;;;;;5100864;28;20180;-35
2023/11/11 08:33:57;;;;;;;5.25;4.75;;;18.20;69.90;;;;;;5100633;28;20522;-34
2023/11/11 08:36:26;;;;;;;5.55;4.95;;;18.20;69.90;;;;;;5093439;28;20028;-34
2023/11/11 08:38:52;;;;;;;5.82;4.97;;;18.20;69.90;;;;;;5091405;28;20094;-35
2023/11/11 08:41:18;;;;;;;7.03;5.03;;;18.20;69.90;;;;;;5092440;28;20028;-34
2023/11/11 08:43:45;;;;;;;5.60;5.10;;;18.20;70.00;;;;;;5089747;28;20036;-34
2023/11/11 08:46:12;;;;;;;5.72;4.80;;;18.20;70.00;;;;;;5100215;28;20065;-34
2023/11/11 08:48:40;;;;;;;5.90;5.18;;;18.20;70.00;;;;;;5101283;28;20046;-34
2023/11/11 08:51:11;;;;;;;5.28;4.78;;;18.20;70.00;;;;;;5094276;28;20028;-34
2023/11/11 08:53:37;;;;;;;5.32;4.82;;;18.10;69.90;;;;;;5089099;28;20086;-34
2023/11/11 08:56:04;;;;;;;5.43;4.78;;;18.10;69.90;;;;;;5098196;28;20481;-35
2023/11/11 08:58:30;;;;;;;5.60;5.00;;;18.10;69.90;;;;;;5101686;28;20031;-35
2023/11/11 09:00:56;;;;;;;5.72;4.90;;;18.10;69.80;;;;;;5101510;28;20097;-35
2023/11/11 09:03:22;;;;;;;4.97;4.35;;;18.10;69.90;;;;;;5093819;28;20491;-35
2023/11/11 09:05:49;;;;;;;5.60;4.60;;;18.10;69.80;;;;;;5097395;28;20027;-35
2023/11/11 09:08:15;;;;;;;5.50;5.00;;;18.10;69.80;;;;;;5092061;28;20028;-35
2023/11/11 09:10:41;;;;;;;4.95;4.47;;;18.10;69.90;;;;;;5090538;28;20032;-35
2023/11/11 09:13:10;;;;;;;4.90;4.45;;;18.10;69.90;;;;;;5092156;28;20033;-35
2023/11/11 09:15:37;;;;;;;6.00;4.82;;;18.00;69.80;;;;;;5090819;28;20040;-35
2023/11/11 09:18:04;;;;;;;5.05;4.55;;;18.00;69.80;;;;;;5098033;28;20016;-35
2023/11/11 09:20:32;;;;;;;;;;;18.10;69.90;;;;;;5088748;28;20044;-35
2023/11/11 09:22:58;;;;;;;4.70;4.30;;;18.10;69.90;;;;;;5087288;28;19908;-35
2023/11/11 09:25:25;;;;;;;5.80;4.20;;;18.00;69.80;;;;;;5090416;28;20024;-35
2023/11/11 09:27:51;;;;;;;5.30;4.60;;;18.00;69.70;;;;;;5090215;28;20040;-35
2023/11/11 09:30:19;;;;;;;5.22;4.38;;;18.00;69.80;;;;;;5083652;28;20029;-35
2023/11/11 09:32:45;;;;;;;4.90;4.50;;;18.00;69.80;;;;;;5098204;28;20036;-35
2023/11/11 09:35:13;;;;;;;4.85;4.30;;;18.00;69.80;;;;;;5094051;28;20039;-35
2023/11/11 09:37:40;;;;;;;5.30;4.50;;;18.00;69.80;;;;;;5098815;28;20020;-35
2023/11/11 09:40:11;;;;;;;5.22;4.40;;;18.00;69.80;;;;;;5094931;28;20073;-35
2023/11/11 09:42:37;;;;;;;5.00;4.50;;;18.00;69.90;;;;;;5103603;28;20495;-35
2023/11/11 09:45:08;;;;;;;5.47;4.33;;;17.90;69.90;;;;;;5088531;28;20044;-34
2023/11/11 09:47:34;;;;;;;5.20;4.50;;;17.90;69.90;;;;;;5091120;28;20045;-34
2023/11/11 09:50:00;;;;;;;4.20;3.80;;;17.90;70.00;;;;;;5095152;28;20028;-34
2023/11/11 09:52:30;;;;;;;4.28;3.88;;;17.90;69.90;;;;;;5085602;28;20025;-35
2023/11/11 09:55:01;;;;;;;4.40;4.00;;;17.90;69.90;;;;;;5092373;28;20061;-35
2023/11/11 09:57:30;;;;;;;4.55;4.15;;;17.90;69.90;;;;;;5091329;28;20031;-35
2023/11/11 10:00:00;;;;;;;4.78;3.90;;;17.90;69.90;;;;;;5096019;28;20607;-35
2023/11/11 10:02:26;;;;;;;4.25;3.85;;;17.90;69.90;;;;;;5092232;28;20025;-35
2023/11/11 10:04:53;;;;;;;5.85;3.90;;;17.90;69.90;;;;;;5091340;28;20021;-35
2023/11/11 10:07:21;;;;;;;4.00;3.58;;;17.90;69.90;;;;;;5100248;28;20075;-35
2023/11/11 10:09:51;;;;;;;4.65;4.07;;;17.90;69.90;;;;;;5086364;28;20044;-35
2023/11/11 10:12:17;;;;;;;4.38;3.92;;;17.90;70.00;;;;;;5094320;28;20031;-34
2023/11/11 10:14:43;;;;;;;4.20;3.80;;;17.90;70.00;;;;;;5087009;28;20170;-35
2023/11/11 10:17:13;;;;;;;3.83;3.53;;;17.80;69.90;;;;;;5099504;28;20048;-35
2023/11/11 10:19:42;;;;;;;4.03;3.63;;;17.80;69.90;;;;;;5097197;28;20030;-34
2023/11/11 10:22:08;;;;;;;4.60;3.65;;;17.80;69.90;;;;;;5103603;28;20024;-34
2023/11/11 10:24:35;;;;;;;4.47;3.90;;;17.80;69.90;;;;;;5086626;28;20020;-34
2023/11/11 10:27:03;;;;;;;3.70;3.40;;;17.80;69.90;;;;;;5086537;28;20048;-34
2023/11/11 10:29:38;;;;;;;4.45;3.30;;;17.80;69.90;;;;;;5089861;28;20064;-34
2023/11/11 10:32:11;;;;;;;3.65;3.20;;;17.80;69.90;;;;;;5096585;28;20031;-34
2023/11/11 10:34:37;;;;;;;4.13;3.38;;;17.80;69.90;;;;;;5091426;28;20078;-35
2023/11/11 10:37:03;;;;;;;4.20;3.80;;;17.80;70.00;;;;;;5093053;28;20029;-35
2023/11/11 10:39:39;;;;;;;4.50;3.28;;;17.80;69.90;;;;;;5086096;28;20059;-35
2023/11/11 10:42:05;;;;;;;3.75;3.35;;;17.80;69.90;;;;;;5094774;28;20048;-36
2023/11/11 10:44:32;;;;;;;3.58;3.28;;;17.70;69.90;;;;;;5099272;28;20040;-35
2023/11/11 10:46:59;;;;;;;3.90;3.38;;;17.80;70.00;;;;;;5094538;28;20061;-35
2023/11/11 10:49:28;;;;;;;3.45;3.13;;;17.70;70.00;;;;;;5086440;28;20028;-34
2023/11/11 10:51:58;;;;;;;3.47;3.15;;;17.70;69.90;;;;;;5092270;28;20024;-34
2023/11/11 10:54:25;;;;;;;3.47;3.10;;;17.70;70.00;;;;;;5096568;28;20538;-35
2023/11/11 10:56:52;;;;;;;4.18;3.28;;;17.70;69.90;;;;;;5104561;28;20028;-34
2023/11/11 10:59:18;;;;;;;3.45;3.05;;;17.70;69.90;;;;;;5100773;28;20421;-34
2023/11/11 11:01:45;;;;;;;4.00;3.10;;;17.70;69.90;;;;;;5090402;28;20024;-34
2023/11/11 11:04:11;;;;;;;3.38;2.83;;;17.70;69.90;;;;;;5101309;28;20024;-34
2023/11/11 11:06:45;;;;;;;3.75;3.33;;;17.70;69.90;;;;;;5094015;28;20030;-34
2023/11/11 11:09:34;;;;;;;3.95;2.90;;;17.70;70.00;;;;;;5087742;28;20028;-34
2023/11/11 11:12:40;;;;;;;3.38;3.08;;;17.70;70.00;;;;;;5095614;28;20031;-34
2023/11/11 11:15:13;;;;;;;3.33;3.03;;;17.70;70.00;;;;;;5085456;28;20040;-34
2023/11/11 11:17:45;;;;;;;3.33;3.00;;;17.60;70.00;;;;;;5093272;28;20039;-34
2023/11/11 11:20:15;;;;;;;3.05;2.75;;;17.60;70.00;;;;;;5094763;28;20020;-34
2023/11/11 11:22:45;;;;;;;3.15;2.83;;;17.60;70.00;;;;;;5103727;28;20053;-35
2023/11/11 11:25:51;;;;;;;3.28;2.95;;;17.60;70.00;;;;;;5094973;28;20546;-35
2023/11/11 11:28:18;;;;;;;3.13;2.80;;;17.60;70.00;;;;;;5103135;28;20038;-35
2023/11/11 11:30:54;;;;;;;3.65;3.20;;;17.60;70.00;;;;;;5103585;28;20487;-34
2023/11/11 11:33:27;;;;;;;3.17;2.88;;;17.60;70.00;;;;;;5094341;28;20044;-34
2023/11/11 11:36:06;;;;;;;3.17;2.88;;;17.60;70.00;;;;;;5099956;28;20093;-35
2023/11/11 11:38:37;;;;;;;2.80;2.60;;;17.60;70.10;;;;;;5089319;28;20024;-35
2023/11/11 11:41:12;;;;;;;3.13;2.55;;;17.60;70.00;;;;;;5100143;28;20084;-35
2023/11/11 11:43:40;;;;;;;3.85;3.00;;;17.50;70.00;;;;;;5102514;28;20048;-35
2023/11/11 11:46:07;;;;;;;3.17;2.80;;;17.60;70.00;;;;;;5107379;28;20030;-35
2023/11/11 11:48:38;;;;;;;2.65;2.40;;;17.50;70.00;;;;;;5094783;28;20036;-34
2023/11/11 11:51:07;;;;;;;3.50;2.88;;;17.50;70.00;;;;;;5101192;28;20257;-34
2023/11/11 11:53:34;;;;;;;3.00;2.70;;;17.50;70.00;;;;;;5102573;28;20028;-35
2023/11/11 11:56:01;;;;;;;;;;;17.50;70.00;;;;;;5094698;28;20052;-35
2023/11/11 11:58:28;;;;;;;2.80;2.60;;;17.50;70.00;;;;;;5088539;28;19929;-35
2023/11/11 12:00:54;;;;;;;3.20;2.90;;;17.50;70.00;;;;;;5095985;28;20691;-35
2023/11/11 12:03:20;;;;;;;5.13;2.85;;;17.50;70.00;;;;;;5092568;28;20101;-34
2023/11/11 12:05:51;;;;;;;3.38;2.70;;;17.50;70.10;;;;;;5096558;28;20028;-35
2023/11/11 12:08:18;;;;;;;2.70;2.30;;;17.50;70.00;;;;;;5093407;28;20032;-35
2023/11/11 12:10:46;;;;;;;3.58;2.80;;;17.50;70.00;;;;;;5090542;28;20029;-35
2023/11/11 12:13:12;;;;;;;3.85;2.35;;;17.50;70.00;;;;;;5099986;28;20040;-35
2023/11/11 12:15:39;;;;;;;3.20;2.90;;;17.50;70.10;;;;;;5098164;28;20040;-35
2023/11/11 12:18:09;;;;;;;4.55;2.50;;;17.40;70.10;;;;;;5091874;28;20091;-34
2023/11/11 12:20:42;;;;;;;2.85;2.50;;;17.40;70.00;;;;;;5097535;28;20040;-34
2023/11/11 12:23:11;;;;;;;3.05;2.50;;;17.40;70.00;;;;;;5092151;28;20084;-34
2023/11/11 12:25:39;;;;;;;5.15;2.75;;;17.40;70.00;;;;;;5092491;28;20378;-34
2023/11/11 12:28:06;;;;;;;2.50;2.30;;;17.40;70.00;;;;;;5098850;28;20616;-34
2023/11/11 12:30:32;;;;;;;;;;;17.40;69.90;;;;;;5092225;28;20036;-34
2023/11/11 12:33:08;;;;;;;2.60;2.40;;;17.40;70.00;;;;;;5098675;28;19908;-35
2023/11/11 12:35:40;;;;;;;3.28;2.47;;;17.40;70.00;;;;;;5093334;28;20054;-34
2023/11/11 12:38:28;;;;;;;2.22;1.98;;;17.40;70.10;;;;;;5097419;28;20512;-34
2023/11/11 12:40:54;;;;;;;;;;;17.40;70.00;;;;;;5095376;28;20046;-34
2023/11/11 12:43:21;;;;;;;2.92;2.47;;;17.40;70.10;;;;;;5093458;28;19912;-35
2023/11/11 12:45:54;;;;;;;2.45;2.25;;;17.40;70.20;;;;;;5107332;28;20036;-35
2023/11/11 12:48:23;;;;;;;2.40;2.20;;;17.30;70.10;;;;;;5101269;28;20032;-35
2023/11/11 12:50:50;;;;;;;2.30;2.10;;;17.30;70.10;;;;;;5101912;28;20031;-35
2023/11/11 12:53:17;;;;;;;2.20;2.00;;;17.30;70.00;;;;;;5099163;28;20047;-35